Ana Sayfa
METAR-TAF:

METAR-TAF

Havaalanları :

Koltsovo Havalimanı

Yekaterinburg, Rusya

Enlem: 56-50N, Boylam: 060-38E, yükseklik: 237 m

Güncel hava durumu gözlemi

Rapor saat 05:30 UTC de 38 dakika önce yapıldı.
Rüzgar güneydan 10 kt
Sıcaklık 8°C
Nem 57%
Basınç 1015 hPa
Görüş mesafesi 10 km veya daha fazla
1500 m altında bulut yok ve kümülonimbus yok

METAR: USSS 300530Z 19005MPS CAVOK 08/M00 Q1015 R26R/110060 NOSIG RMK QFE740/0987

Saat: 11:08 (06:08 UTC)

Tahmin

Rapor saat 04:55 UTC de 1 saat ve 13 dakika önce yapıldı.
Ayın 30'si saat 06 UTC'den ayın 31'si saat 06 UTC'ye kadar geçerli Tahmin
Rüzgar güneydan 6 kt ve 23 kt'a kadar ani rüzgarlar
Görüş mesafesi 10 km veya daha fazla
1500 m altında bulut yok ve kümülonimbus yok
Dönüşüyor
ayın 30'si saat 16 UTC'den ayın 30'si saat 18 UTC'ye kadar
Rüzgar güneydan 6 kt ve 16 kt'a kadar ani rüzgarlar
1600 ft yükseklikte parçalı bulutlu

TAF: USSS 300455Z 3006/3106 19003G12MPS CAVOK BECMG 3016/3018 18003G08MPS SCT016

4.000'den fazla havaalanı için hava durumu gözlemleri ve tahminleri (METAR ve TAF raporları).

Kullanılabilir istasyonlar harita üzerinde sarı ve kırmızı noktalarla gösterilir.

İstasyonun adını görmek için fareyi noktanın üzerinde gezdirin.

Sonrasında hava gözlem ve tahminlerini görmek için tıklayın.

Haritayı değiştirmek için: yaklaştırmak için siyah artı işaretli yeşil düğmeye ve uzaklaştırmak için de eksi işaretli düğmeye hızla tıklayın; bitişik haritalar için yeşil okları kullanın.


METAR-TAF: